Chang Sheng — V3PK — position and weather

sailwx.info

Track history (hours):
 
Tides and Currents Weather Stations Pressure Air Temp Water Temp Dewpoint Dewpoint Depression Visibility Wind Speed Wind Dir Waves Ship Positions

Chang Sheng

Last reported at 2016-Aug-21 22:05 UTC. Time now 2016-Aug-24 10:14 UTC.
Position N 34°41' E 134°47'.

Length 86 m; draft 4.2 m.

Type: Cargo ship. MMSI: 312161000.

Date/timePositionNaut miles runAvg speedWind from/ knotsBaromVisibWave heightAir tempDewpointWater temp
2016-Aug-21 22:05N 34°41' E 134°47'0 0.0
2016-Aug-21 14:12N 34°41' E 134°47'0 0.0
2016-Aug-21 13:30N 34°41' E 134°47'0 0.0
2016-Aug-21 04:33N 34°41' E 134°47'  
2016-Aug-14 18:30N 36°51' E 123°39'8 8.2
2016-Aug-14 17:33N 36°58' E 123°34'10 8.8
2016-Aug-14 16:25N 37°06' E 123°28'8 9.2
2016-Aug-14 15:33N 37°13' E 123°23'10 9.9
2016-Aug-14 14:33N 37°21' E 123°16'4110.1
2016-Aug-14 10:30N 37°46' E 122°35'84 9.2
2016-Aug-14 01:21N 38°29' E 121°04'7 8.4
2016-Aug-14 00:33N 38°32' E 120°56'10 8.6
2016-Aug-13 23:26N 38°36' E 120°45'116 9.5
2016-Aug-13 11:11N 38°50' E 118°18'23 8.9
2016-Aug-13 08:33N 38°58' E 117°49'3 2.8
2016-Aug-13 07:30N 38°59' E 117°46'0 0.0
2016-Aug-13 06:30N 38°59' E 117°46'0 0.0
2016-Aug-13 05:24N 38°59' E 117°46'0 0.0
2016-Aug-13 04:24N 38°59' E 117°46'0 0.0
2016-Aug-13 03:24N 38°59' E 117°46'0 0.0
2016-Aug-13 02:24N 38°59' E 117°46'0 0.0
2016-Aug-13 01:30N 38°59' E 117°46'0 0.0
2016-Aug-13 00:30N 38°59' E 117°46'0 0.0
2016-Aug-12 23:30N 38°59' E 117°46'0 0.0
2016-Aug-12 22:30N 38°59' E 117°46'0 0.0
2016-Aug-12 21:30N 38°59' E 117°46'0 0.0
2016-Aug-12 20:30N 38°59' E 117°46'0 0.0
2016-Aug-12 19:30N 38°59' E 117°46'0 0.1
2016-Aug-12 18:32N 38°59' E 117°46'0 0.0
2016-Aug-12 17:32N 38°59' E 117°46'0 0.0
2016-Aug-12 16:32N 38°59' E 117°46'0 0.0
2016-Aug-12 15:26N 38°59' E 117°46'0 0.0
2016-Aug-12 14:08N 38°59' E 117°46'0 0.0
2016-Aug-12 13:32N 38°59' E 117°46'0 0.1
2016-Aug-12 12:32N 38°59' E 117°46'0 0.1
2016-Aug-12 11:33N 38°59' E 117°46'7 6.7
2016-Aug-12 10:33N 38°57' E 117°54'114 9.9
2016-Aug-11 23:06N 38°13' E 120°08'610.0
2016-Aug-11 22:33N 38°11' E 120°15'  
Track history (hours):
 
Tides and Currents Weather Stations Pressure Air Temp Water Temp Dewpoint Dewpoint Depression Visibility Wind Speed Wind Dir Waves Ship Positions

Chang Sheng

Last reported at 2016-Aug-21 22:05 UTC. Time now 2016-Aug-24 10:14 UTC.
Position N 34°41' E 134°47'.

Length 86 m; draft 4.2 m.

Type: Cargo ship. MMSI: 312161000.

Date/timePositionNaut miles runAvg speedWind from/ knotsBaromVisibWave heightAir tempDewpointWater temp
2016-Aug-21 22:05N 34°41' E 134°47'0 0.0
2016-Aug-21 14:12N 34°41' E 134°47'0 0.0
2016-Aug-21 13:30N 34°41' E 134°47'0 0.0
2016-Aug-21 04:33N 34°41' E 134°47'  
2016-Aug-14 18:30N 36°51' E 123°39'8 8.2
2016-Aug-14 17:33N 36°58' E 123°34'10 8.8
2016-Aug-14 16:25N 37°06' E 123°28'8 9.2
2016-Aug-14 15:33N 37°13' E 123°23'10 9.9
2016-Aug-14 14:33N 37°21' E 123°16'4110.1
2016-Aug-14 10:30N 37°46' E 122°35'84 9.2
2016-Aug-14 01:21N 38°29' E 121°04'7 8.4
2016-Aug-14 00:33N 38°32' E 120°56'10 8.6
2016-Aug-13 23:26N 38°36' E 120°45'116 9.5
2016-Aug-13 11:11N 38°50' E 118°18'23 8.9
2016-Aug-13 08:33N 38°58' E 117°49'3 2.8
2016-Aug-13 07:30N 38°59' E 117°46'0 0.0
2016-Aug-13 06:30N 38°59' E 117°46'0 0.0
2016-Aug-13 05:24N 38°59' E 117°46'0 0.0
2016-Aug-13 04:24N 38°59' E 117°46'0 0.0
2016-Aug-13 03:24N 38°59' E 117°46'0 0.0
2016-Aug-13 02:24N 38°59' E 117°46'0 0.0
2016-Aug-13 01:30N 38°59' E 117°46'0 0.0
2016-Aug-13 00:30N 38°59' E 117°46'0 0.0
2016-Aug-12 23:30N 38°59' E 117°46'0 0.0
2016-Aug-12 22:30N 38°59' E 117°46'0 0.0
2016-Aug-12 21:30N 38°59' E 117°46'0 0.0
2016-Aug-12 20:30N 38°59' E 117°46'0 0.0
2016-Aug-12 19:30N 38°59' E 117°46'0 0.1
2016-Aug-12 18:32N 38°59' E 117°46'0 0.0
2016-Aug-12 17:32N 38°59' E 117°46'0 0.0
2016-Aug-12 16:32N 38°59' E 117°46'0 0.0
2016-Aug-12 15:26N 38°59' E 117°46'0 0.0
2016-Aug-12 14:08N 38°59' E 117°46'0 0.0
2016-Aug-12 13:32N 38°59' E 117°46'0 0.1
2016-Aug-12 12:32N 38°59' E 117°46'0 0.1
2016-Aug-12 11:33N 38°59' E 117°46'7 6.7
2016-Aug-12 10:33N 38°57' E 117°54'114 9.9
2016-Aug-11 23:06N 38°13' E 120°08'610.0
2016-Aug-11 22:33N 38°11' E 120°15'  

Dump ship's entire track history